createdAt,value
2022-12-08T00:01:42.560Z,17.10
2022-12-08T00:04:11.857Z,18.70
2022-12-08T00:07:01.266Z,17.93
2022-12-08T00:09:38.228Z,28.43
2022-12-08T00:12:08.773Z,38.67
2022-12-08T00:14:40.835Z,24.63
2022-12-08T00:17:11.567Z,20.20
2022-12-08T00:19:41.590Z,17.97
2022-12-08T00:22:11.213Z,18.50
2022-12-08T00:24:40.774Z,18.93
2022-12-08T00:27:10.237Z,17.37
2022-12-08T00:29:40.334Z,15.37
2022-12-08T00:32:08.798Z,15.60
2022-12-08T00:34:37.410Z,16.63
2022-12-08T00:37:06.199Z,16.13
2022-12-08T00:39:34.825Z,16.00
2022-12-08T00:42:15.382Z,15.93
2022-12-08T00:44:46.071Z,14.77
2022-12-08T00:47:15.227Z,13.80
2022-12-08T00:49:43.782Z,15.77
2022-12-08T00:52:12.963Z,14.47
2022-12-08T00:54:41.456Z,15.73
2022-12-08T00:57:09.915Z,16.97
2022-12-08T00:59:38.359Z,16.57
2022-12-08T01:02:08.162Z,17.97
2022-12-08T01:04:36.585Z,18.47
2022-12-08T01:07:04.961Z,20.37
2022-12-08T01:09:33.542Z,19.07
2022-12-08T01:12:02.102Z,20.13
2022-12-08T01:14:30.611Z,18.87
2022-12-08T01:16:59.169Z,19.30
2022-12-08T01:19:30.756Z,19.23
2022-12-08T01:21:59.286Z,19.27
2022-12-08T01:24:27.748Z,21.07
2022-12-08T01:26:56.362Z,19.13
2022-12-08T01:29:25.081Z,18.57
2022-12-08T01:31:53.617Z,20.63
2022-12-08T01:34:22.060Z,19.93
2022-12-08T01:36:51.961Z,18.00
2022-12-08T01:39:20.855Z,20.40
2022-12-08T01:41:49.471Z,20.27
2022-12-08T01:44:54.865Z,19.03
2022-12-08T01:47:24.691Z,21.23
2022-12-08T01:49:53.355Z,17.83
2022-12-08T01:52:26.303Z,19.13
2022-12-08T01:54:58.897Z,18.77
2022-12-08T01:57:29.595Z,18.17
2022-12-08T02:00:02.888Z,16.37
2022-12-08T02:02:37.340Z,14.70
2022-12-08T02:05:07.960Z,14.97
2022-12-08T02:07:38.309Z,15.13
2022-12-08T02:10:07.976Z,14.67
2022-12-08T02:12:36.431Z,14.83
2022-12-08T02:15:05.816Z,14.63
2022-12-08T02:17:50.820Z,14.27
2022-12-08T02:20:38.951Z,14.37
2022-12-08T02:23:17.827Z,16.37
2022-12-08T02:26:02.278Z,16.03
2022-12-08T02:28:55.177Z,17.40
2022-12-08T02:31:30.433Z,15.77
2022-12-08T02:34:13.246Z,15.83
2022-12-08T02:36:48.844Z,16.80
2022-12-08T02:39:27.096Z,15.33
2022-12-08T02:42:00.963Z,19.37
2022-12-08T02:44:32.173Z,17.47
2022-12-08T02:47:03.503Z,17.57
2022-12-08T02:49:34.577Z,14.77
2022-12-08T02:52:07.890Z,14.40
2022-12-08T02:54:37.561Z,13.70
2022-12-08T02:57:22.738Z,12.57
2022-12-08T03:00:03.179Z,10.97
2022-12-08T03:02:43.989Z,13.30
2022-12-08T03:05:24.712Z,11.83
2022-12-08T03:08:02.025Z,11.20
2022-12-08T03:10:35.437Z,11.70
2022-12-08T03:13:06.994Z,11.80
2022-12-08T03:15:36.789Z,12.20
2022-12-08T03:18:07.104Z,11.43
2022-12-08T03:20:37.467Z,12.50
2022-12-08T03:23:08.885Z,13.67
2022-12-08T03:25:40.359Z,12.43
2022-12-08T03:28:08.948Z,11.50
2022-12-08T03:30:40.402Z,12.00
2022-12-08T03:33:13.265Z,11.87
2022-12-08T03:35:44.389Z,12.77
2022-12-08T03:38:14.994Z,12.87
2022-12-08T03:41:05.514Z,13.67
2022-12-08T03:43:33.994Z,13.00
2022-12-08T03:46:02.579Z,13.13
2022-12-08T03:48:31.187Z,14.10
2022-12-08T03:51:01.224Z,12.50
2022-12-08T03:53:29.682Z,12.17
2022-12-08T03:55:58.165Z,11.60
2022-12-08T03:58:27.164Z,13.83
2022-12-08T04:00:55.619Z,12.57
2022-12-08T04:03:24.259Z,12.03
2022-12-08T04:05:53.006Z,12.70
2022-12-08T04:08:22.820Z,12.93
2022-12-08T04:10:51.340Z,11.60
2022-12-08T04:13:19.980Z,10.80
2022-12-08T04:15:48.918Z,12.77
2022-12-08T04:18:17.788Z,12.83
2022-12-08T04:20:46.862Z,12.83
2022-12-08T04:23:15.663Z,10.47
2022-12-08T04:25:45.560Z,11.50
2022-12-08T04:28:14.118Z,13.10
2022-12-08T04:30:42.560Z,15.70
2022-12-08T04:33:11.025Z,16.77
2022-12-08T04:35:39.452Z,17.17
2022-12-08T04:38:07.914Z,14.87
2022-12-08T04:40:36.457Z,13.80
2022-12-08T04:43:06.278Z,13.63
2022-12-08T04:45:35.248Z,15.60
2022-12-08T04:48:04.650Z,13.00
2022-12-08T04:50:33.219Z,15.70
2022-12-08T04:53:01.702Z,13.73
2022-12-08T04:55:30.156Z,13.23
2022-12-08T04:57:58.583Z,13.47
2022-12-08T05:00:28.398Z,14.00
2022-12-08T05:02:56.885Z,12.63
2022-12-08T05:05:25.343Z,13.70
2022-12-08T05:07:53.830Z,12.27
2022-12-08T05:10:22.279Z,13.33
2022-12-08T05:12:50.737Z,12.90
2022-12-08T05:15:19.328Z,14.43
2022-12-08T05:17:49.169Z,15.27
2022-12-08T05:20:18.113Z,13.13
2022-12-08T05:22:46.604Z,13.80
2022-12-08T05:25:15.116Z,13.57
2022-12-08T05:27:43.962Z,14.07
2022-12-08T05:30:12.771Z,14.67
2022-12-08T05:32:42.362Z,14.67
2022-12-08T05:35:13.351Z,16.67
2022-12-08T05:37:41.882Z,18.77
2022-12-08T05:40:11.029Z,17.67
2022-12-08T05:42:39.504Z,17.23
2022-12-08T05:45:09.179Z,13.20
2022-12-08T05:47:37.685Z,14.40
2022-12-08T05:50:07.819Z,11.93
2022-12-08T05:52:37.871Z,20.30
2022-12-08T05:55:06.969Z,29.63
2022-12-08T05:57:35.484Z,26.10
2022-12-08T06:00:05.016Z,16.27
2022-12-08T06:02:34.150Z,12.07
2022-12-08T06:05:02.748Z,11.10
2022-12-08T06:07:31.188Z,11.20
2022-12-08T06:10:01.099Z,11.13
2022-12-08T06:12:29.676Z,11.03
2022-12-08T06:14:58.215Z,11.43
2022-12-08T06:17:26.667Z,11.03
2022-12-08T06:19:55.126Z,10.23
2022-12-08T06:22:23.564Z,10.70
2022-12-08T06:24:52.013Z,16.60
2022-12-08T06:27:22.010Z,14.93
2022-12-08T06:29:50.536Z,13.90
2022-12-08T06:32:22.987Z,11.70
2022-12-08T06:34:54.351Z,11.00
2022-12-08T06:37:22.862Z,11.03
2022-12-08T06:39:51.780Z,12.53
2022-12-08T06:42:39.349Z,14.27
2022-12-08T06:45:08.978Z,14.47
2022-12-08T06:47:37.559Z,16.37
2022-12-08T06:50:07.517Z,17.10
2022-12-08T06:52:43.152Z,17.77
2022-12-08T06:55:35.277Z,14.97
2022-12-08T06:58:07.082Z,14.10
2022-12-08T07:00:35.601Z,14.07
2022-12-08T07:03:04.027Z,16.20
2022-12-08T07:05:32.559Z,16.13
2022-12-08T07:08:01.579Z,15.40
2022-12-08T07:10:30.139Z,15.90
2022-12-08T07:12:58.631Z,15.97
2022-12-08T07:15:29.272Z,14.57
2022-12-08T07:18:00.033Z,16.13
2022-12-08T07:20:29.266Z,24.70
2022-12-08T07:22:57.814Z,21.40
2022-12-08T07:25:26.891Z,18.83
2022-12-08T07:27:55.327Z,17.43
2022-12-08T07:30:23.775Z,16.57
2022-12-08T07:32:53.777Z,17.47
2022-12-08T07:35:23.158Z,17.27
2022-12-08T07:37:51.675Z,26.70
2022-12-08T07:40:20.169Z,28.40
2022-12-08T07:42:48.639Z,20.87
2022-12-08T07:45:17.222Z,17.57
2022-12-08T07:47:45.683Z,16.43
2022-12-08T07:50:15.531Z,17.57
2022-12-08T07:52:44.056Z,14.83
2022-12-08T07:55:12.663Z,23.57
2022-12-08T07:57:41.106Z,18.43
2022-12-08T08:00:11.446Z,19.20
2022-12-08T08:02:40.873Z,18.33
2022-12-08T08:05:10.710Z,16.83
2022-12-08T08:07:42.109Z,19.93
2022-12-08T08:10:11.398Z,27.63
2022-12-08T08:12:40.065Z,22.07
2022-12-08T08:15:10.449Z,24.53
2022-12-08T08:17:39.370Z,21.33
2022-12-08T08:20:09.271Z,19.13
2022-12-08T08:22:37.811Z,19.33
2022-12-08T08:25:08.377Z,16.13
2022-12-08T08:27:36.842Z,19.17
2022-12-08T08:30:06.350Z,17.37
2022-12-08T08:32:35.304Z,18.90
2022-12-08T08:35:03.964Z,18.87
2022-12-08T08:37:32.567Z,20.53
2022-12-08T08:40:01.034Z,21.87
2022-12-08T08:42:30.875Z,22.07
2022-12-08T08:44:59.402Z,33.13
2022-12-08T08:47:27.919Z,27.10
2022-12-08T08:49:56.343Z,24.87
2022-12-08T08:52:24.886Z,22.93
2022-12-08T08:54:53.377Z,24.30
2022-12-08T08:57:25.508Z,23.10
2022-12-08T08:59:56.137Z,24.63
2022-12-08T09:02:25.427Z,23.77
2022-12-08T09:04:54.112Z,25.90
2022-12-08T09:07:22.737Z,23.47
2022-12-08T09:09:51.302Z,22.90
2022-12-08T09:12:19.726Z,23.60
2022-12-08T09:14:48.296Z,24.73
2022-12-08T09:17:18.143Z,23.33
2022-12-08T09:19:46.774Z,21.63
2022-12-08T09:22:16.549Z,21.20
2022-12-08T09:24:45.042Z,24.43
2022-12-08T09:27:13.780Z,25.77
2022-12-08T09:29:42.296Z,24.57
2022-12-08T09:32:10.850Z,24.67
2022-12-08T09:34:40.768Z,23.03
2022-12-08T09:37:09.208Z,26.37
2022-12-08T09:39:37.746Z,23.60
2022-12-08T09:42:07.873Z,21.63
2022-12-08T09:44:45.339Z,24.10
2022-12-08T09:47:22.799Z,23.73
2022-12-08T09:49:57.441Z,31.77
2022-12-08T09:52:27.956Z,37.97
2022-12-08T09:54:58.434Z,36.27
2022-12-08T09:57:27.537Z,27.53
2022-12-08T09:59:59.789Z,20.60
2022-12-08T10:02:30.933Z,20.33
2022-12-08T10:05:00.970Z,23.13
2022-12-08T10:07:39.612Z,21.63
2022-12-08T10:10:16.548Z,25.53
2022-12-08T10:12:48.874Z,19.87
2022-12-08T10:15:33.403Z,19.60
2022-12-08T10:18:03.233Z,18.83
2022-12-08T10:20:38.312Z,20.20
2022-12-08T10:23:11.011Z,21.30
2022-12-08T10:25:44.685Z,19.27
2022-12-08T10:28:13.392Z,20.53
2022-12-08T10:30:41.903Z,20.37
2022-12-08T10:33:13.963Z,22.83
2022-12-08T10:35:49.143Z,23.70
2022-12-08T10:38:23.573Z,21.10
2022-12-08T10:40:53.603Z,20.77
2022-12-08T10:43:25.272Z,22.20
2022-12-08T10:45:54.339Z,21.77
2022-12-08T10:48:25.496Z,20.53
2022-12-08T10:50:58.026Z,21.23
2022-12-08T10:53:28.681Z,23.37
2022-12-08T10:56:08.265Z,22.83
2022-12-08T10:58:40.781Z,21.93
2022-12-08T11:01:13.413Z,23.53
2022-12-08T11:03:46.546Z,30.33
2022-12-08T11:06:19.959Z,25.60
2022-12-08T11:08:53.282Z,22.47
2022-12-08T11:11:29.016Z,24.67
2022-12-08T11:13:58.173Z,22.87
2022-12-08T11:16:27.028Z,24.83
2022-12-08T11:18:59.584Z,49.43
2022-12-08T11:21:37.997Z,24.00
2022-12-08T11:24:23.646Z,18.13
2022-12-08T11:26:55.521Z,19.60
2022-12-08T11:29:24.085Z,18.03
2022-12-08T11:31:55.862Z,18.80
2022-12-08T11:34:32.496Z,27.90
2022-12-08T11:37:03.894Z,17.23
2022-12-08T11:39:34.920Z,17.10
2022-12-08T11:42:05.146Z,16.87
2022-12-08T11:44:39.169Z,17.63
2022-12-08T11:47:12.902Z,17.43
2022-12-08T11:49:43.141Z,17.60
2022-12-08T11:52:20.773Z,15.23
2022-12-08T11:54:53.030Z,16.97
2022-12-08T11:57:22.480Z,17.20
2022-12-08T11:59:52.118Z,16.90
2022-12-08T12:02:23.431Z,16.27
2022-12-08T12:04:55.367Z,15.50
2022-12-08T12:07:34.928Z,17.13
2022-12-08T12:10:24.536Z,15.90
2022-12-08T12:13:06.330Z,16.13
2022-12-08T12:16:27.348Z,16.07
2022-12-08T12:18:58.588Z,17.07
2022-12-08T12:21:29.380Z,15.27
2022-12-08T12:24:01.379Z,22.03
2022-12-08T12:26:31.137Z,21.27
2022-12-08T12:29:03.077Z,17.53
2022-12-08T12:31:33.203Z,18.27
2022-12-08T12:34:08.626Z,17.23
2022-12-08T12:36:49.367Z,16.37
2022-12-08T12:39:20.273Z,18.80
2022-12-08T12:41:51.824Z,26.67
2022-12-08T12:44:41.231Z,23.67
2022-12-08T12:47:15.488Z,21.30
2022-12-08T12:50:15.668Z,19.70
2022-12-08T12:52:45.353Z,20.90
2022-12-08T12:55:30.514Z,17.37
2022-12-08T12:58:00.184Z,21.57
2022-12-08T13:00:29.332Z,20.13
2022-12-08T13:02:59.369Z,19.23
2022-12-08T13:05:29.863Z,17.77
2022-12-08T13:08:02.198Z,16.17
2022-12-08T13:10:33.786Z,16.43
2022-12-08T13:13:09.082Z,15.57
2022-12-08T13:15:40.087Z,14.70
2022-12-08T13:18:16.976Z,17.20
2022-12-08T13:20:48.786Z,15.47
2022-12-08T13:23:43.574Z,16.03
2022-12-08T13:26:23.547Z,16.03
2022-12-08T13:29:23.089Z,16.60
2022-12-08T13:31:53.674Z,17.37
2022-12-08T13:34:31.423Z,16.83
2022-12-08T13:37:20.972Z,16.47
2022-12-08T13:39:52.728Z,17.90
2022-12-08T13:42:26.056Z,16.20
2022-12-08T13:48:21.733Z,21.27
2022-12-08T13:52:37.025Z,25.73
2022-12-08T13:59:30.424Z,20.80
2022-12-08T14:02:00.862Z,22.07
2022-12-08T14:05:16.405Z,20.27
2022-12-08T14:07:17.863Z,21.23
2022-12-08T14:09:47.484Z,19.60
2022-12-08T14:12:20.028Z,21.50
2022-12-08T14:15:07.544Z,21.70
2022-12-08T14:17:36.040Z,21.00
2022-12-08T14:20:08.288Z,22.00
2022-12-08T14:22:38.351Z,31.67
2022-12-08T14:25:08.894Z,25.10
2022-12-08T14:27:38.741Z,19.90
2022-12-08T14:30:09.932Z,22.17
2022-12-08T14:32:40.443Z,22.43
2022-12-08T14:35:21.858Z,21.23
2022-12-08T14:37:52.403Z,19.87
2022-12-08T14:40:24.195Z,19.27
2022-12-08T14:42:55.452Z,21.17
2022-12-08T14:45:25.294Z,18.30
2022-12-08T14:47:54.011Z,22.20
2022-12-08T14:50:40.601Z,23.93
2022-12-08T14:53:14.409Z,24.47
2022-12-08T14:55:44.395Z,22.37
2022-12-08T14:58:19.138Z,23.70
2022-12-08T15:00:51.539Z,34.33
2022-12-08T15:03:20.541Z,26.77
2022-12-08T15:05:53.685Z,29.83
2022-12-08T15:08:22.264Z,21.93
2022-12-08T15:11:20.555Z,25.27
2022-12-08T15:13:54.444Z,28.67
2022-12-08T15:16:29.789Z,23.70
2022-12-08T15:19:11.880Z,21.97
2022-12-08T15:21:43.354Z,23.87
2022-12-08T15:24:12.560Z,23.27
2022-12-08T15:26:43.695Z,21.23
2022-12-08T15:29:13.911Z,23.20
2022-12-08T15:31:43.772Z,23.00
2022-12-08T15:34:12.397Z,21.50
2022-12-08T15:36:42.979Z,21.07
2022-12-08T15:39:28.630Z,23.90
2022-12-08T15:41:57.148Z,21.77
2022-12-08T15:44:25.771Z,21.83
2022-12-08T15:46:56.358Z,22.43
2022-12-08T15:49:25.793Z,20.60
2022-12-08T15:52:06.523Z,23.57
2022-12-08T15:54:39.590Z,20.43
2022-12-08T15:57:19.563Z,23.43
2022-12-08T15:59:51.192Z,24.33
2022-12-08T16:02:22.892Z,21.43
2022-12-08T16:07:41.589Z,22.80
2022-12-08T16:10:12.910Z,22.30
2022-12-08T16:13:55.662Z,27.57
2022-12-08T16:15:53.511Z,22.23
2022-12-08T16:18:30.727Z,24.40
2022-12-08T16:21:12.308Z,24.33
2022-12-08T16:23:45.936Z,24.80
2022-12-08T16:26:28.391Z,22.23
2022-12-08T16:29:04.998Z,39.83
2022-12-08T16:31:34.032Z,36.57
2022-12-08T16:34:04.020Z,33.77
2022-12-08T16:36:32.613Z,25.77
2022-12-08T16:39:01.090Z,24.63
2022-12-08T16:41:46.750Z,23.33
2022-12-08T16:44:15.290Z,23.37
2022-12-08T16:46:43.891Z,23.93
2022-12-08T16:49:15.510Z,22.33
2022-12-08T16:51:44.801Z,28.03
2022-12-08T16:54:13.254Z,28.53
2022-12-08T16:56:41.710Z,26.73
2022-12-08T16:59:10.119Z,26.10
2022-12-08T17:01:39.046Z,24.07
2022-12-08T17:04:30.546Z,59.07
2022-12-08T17:06:58.169Z,47.97
2022-12-08T17:09:27.882Z,34.23
2022-12-08T17:12:01.883Z,25.50
2022-12-08T17:14:34.154Z,25.80
2022-12-08T17:17:04.628Z,36.67
2022-12-08T17:19:33.953Z,38.57
2022-12-08T17:22:03.856Z,39.70
2022-12-08T17:24:32.801Z,34.47
2022-12-08T17:27:04.066Z,31.03
2022-12-08T17:29:32.633Z,32.57
2022-12-08T17:32:01.292Z,32.27
2022-12-08T17:34:29.978Z,30.27
2022-12-08T17:36:58.566Z,28.47
2022-12-08T17:39:28.448Z,26.33
2022-12-08T17:42:00.023Z,25.77
2022-12-08T17:44:29.153Z,26.07
2022-12-08T17:47:00.569Z,26.30
2022-12-08T17:49:30.695Z,22.77
2022-12-08T17:52:01.138Z,21.17
2022-12-08T17:54:31.116Z,27.67
2022-12-08T17:56:59.803Z,62.70
2022-12-08T17:59:29.207Z,43.23
2022-12-08T18:01:58.649Z,25.97
2022-12-08T18:04:27.691Z,22.73
2022-12-08T18:06:58.223Z,27.03
2022-12-08T18:09:26.795Z,27.43
2022-12-08T18:11:56.877Z,25.00
2022-12-08T18:14:25.465Z,24.07
2022-12-08T18:16:53.954Z,27.83
2022-12-08T18:19:22.466Z,23.37
2022-12-08T18:21:50.954Z,21.97
2022-12-08T18:24:22.040Z,22.33
2022-12-08T18:26:52.171Z,21.73
2022-12-08T18:29:22.992Z,21.53
2022-12-08T18:31:52.289Z,23.07
2022-12-08T18:34:20.885Z,21.63
2022-12-08T18:36:49.463Z,23.07
2022-12-08T18:39:23.172Z,20.47
2022-12-08T18:41:51.745Z,20.23
2022-12-08T18:44:21.745Z,20.40
2022-12-08T18:46:50.484Z,20.20
2022-12-08T18:49:20.586Z,22.83
2022-12-08T18:51:49.174Z,20.67
2022-12-08T18:54:17.696Z,20.53
2022-12-08T18:56:46.149Z,21.70
2022-12-08T18:59:14.916Z,23.70
2022-12-08T19:01:44.860Z,26.33
2022-12-08T19:04:28.284Z,25.20
2022-12-08T19:06:58.051Z,24.87
2022-12-08T19:09:28.866Z,29.37
2022-12-08T19:11:57.407Z,32.13
2022-12-08T19:14:28.419Z,26.17
2022-12-08T19:16:59.102Z,23.90
2022-12-08T19:19:28.192Z,23.23
2022-12-08T19:21:57.150Z,23.13
2022-12-08T19:24:25.967Z,51.73
2022-12-08T19:26:54.965Z,33.53
2022-12-08T19:29:23.436Z,27.80
2022-12-08T19:31:51.998Z,23.50
2022-12-08T19:34:21.948Z,20.77
2022-12-08T19:36:50.629Z,21.20
2022-12-08T19:39:37.665Z,21.73
2022-12-08T19:42:28.224Z,22.57
2022-12-08T19:44:56.758Z,21.70
2022-12-08T19:47:26.949Z,20.90
2022-12-08T19:50:17.988Z,21.57
2022-12-08T19:52:46.637Z,20.40
2022-12-08T19:55:15.101Z,19.63
2022-12-08T19:57:43.533Z,22.00
2022-12-08T20:00:13.594Z,25.73
2022-12-08T20:02:42.280Z,41.60
2022-12-08T20:05:12.546Z,33.53
2022-12-08T20:07:41.642Z,26.47
2022-12-08T20:10:15.968Z,25.47
2022-12-08T20:12:44.581Z,30.07
2022-12-08T20:15:14.682Z,25.83
2022-12-08T20:17:44.106Z,22.53
2022-12-08T20:20:15.286Z,21.40
2022-12-08T20:22:45.321Z,21.10
2022-12-08T20:25:14.076Z,20.10
2022-12-08T20:27:42.919Z,20.93
2022-12-08T20:30:16.716Z,20.30
2022-12-08T20:32:45.963Z,20.10
2022-12-08T20:35:16.353Z,21.77
2022-12-08T20:37:44.877Z,20.97
2022-12-08T20:40:13.850Z,38.43
2022-12-08T20:42:42.486Z,25.10
2022-12-08T20:45:11.376Z,19.00
2022-12-08T20:47:39.862Z,17.63
2022-12-08T20:50:09.854Z,19.30
2022-12-08T20:52:40.357Z,19.67
2022-12-08T20:55:10.249Z,18.33
2022-12-08T20:57:38.901Z,19.47
2022-12-08T21:00:09.203Z,17.30
2022-12-08T21:02:45.156Z,15.53
2022-12-08T21:05:16.464Z,17.30
2022-12-08T21:07:46.704Z,17.70
2022-12-08T21:10:15.551Z,16.80
2022-12-08T21:12:44.294Z,17.00
2022-12-08T21:15:13.386Z,18.27
2022-12-08T21:17:42.325Z,19.13
2022-12-08T21:20:11.855Z,21.47
2022-12-08T21:22:40.992Z,35.47
2022-12-08T21:25:11.664Z,22.30
2022-12-08T21:27:40.730Z,20.93
2022-12-08T21:30:11.612Z,20.63
2022-12-08T21:32:40.733Z,19.07
2022-12-08T21:35:10.139Z,19.33
2022-12-08T21:37:38.792Z,17.87
2022-12-08T21:40:08.969Z,18.83
2022-12-08T21:42:45.054Z,20.83
2022-12-08T21:45:15.107Z,18.07
2022-12-08T21:47:44.198Z,18.97
2022-12-08T21:50:13.718Z,19.57
2022-12-08T21:52:44.146Z,17.63
2022-12-08T21:55:13.557Z,14.60
2022-12-08T21:57:43.801Z,12.80
2022-12-08T22:00:16.163Z,15.20
2022-12-08T22:02:45.014Z,27.17
2022-12-08T22:05:13.742Z,20.50
2022-12-08T22:07:42.640Z,18.20
2022-12-08T22:10:12.250Z,19.50
2022-12-08T22:12:41.072Z,17.50
2022-12-08T22:15:12.721Z,16.20
2022-12-08T22:17:43.385Z,18.70
2022-12-08T22:20:13.743Z,14.93
2022-12-08T22:22:42.662Z,16.00
2022-12-08T22:25:13.146Z,14.50
2022-12-08T22:27:42.128Z,13.40
2022-12-08T22:30:13.273Z,14.53
2022-12-08T22:32:42.336Z,14.50
2022-12-08T22:35:11.233Z,15.73
2022-12-08T22:37:39.853Z,13.33
2022-12-08T22:40:09.712Z,13.47
2022-12-08T22:42:38.662Z,13.10
2022-12-08T22:45:08.229Z,13.77
2022-12-08T22:47:38.359Z,29.87
2022-12-08T22:50:08.142Z,31.03
2022-12-08T22:52:36.769Z,23.47
2022-12-08T22:55:05.832Z,18.63
2022-12-08T22:57:34.302Z,18.17
2022-12-08T23:00:03.604Z,16.63
2022-12-08T23:02:32.156Z,14.57
2022-12-08T23:05:02.132Z,13.33
2022-12-08T23:07:30.726Z,13.77
2022-12-08T23:09:59.419Z,13.70
2022-12-08T23:12:27.833Z,12.23
2022-12-08T23:14:56.206Z,12.97
2022-12-08T23:17:24.823Z,12.07
2022-12-08T23:19:53.394Z,12.90
2022-12-08T23:22:23.458Z,12.50
2022-12-08T23:24:51.894Z,13.77
2022-12-08T23:27:20.459Z,11.83
2022-12-08T23:29:48.891Z,13.20
2022-12-08T23:32:17.476Z,12.70
2022-12-08T23:34:46.919Z,13.73
2022-12-08T23:37:15.542Z,13.83
2022-12-08T23:39:45.640Z,13.43
2022-12-08T23:42:14.133Z,11.87
2022-12-08T23:44:42.504Z,14.33
2022-12-08T23:47:11.081Z,10.57
2022-12-08T23:49:39.541Z,11.80
2022-12-08T23:52:08.270Z,10.90
2022-12-08T23:54:36.956Z,12.00
2022-12-08T23:57:06.808Z,10.93
2022-12-08T23:59:35.889Z,10.80
